Time;durP1;ratioP1;P1;durP2;ratioP2;P2;SDS_P1;SDS_P2;PMS_P1;PMS_P2;Temp;Humidity;BMP_temperature;BMP_pressure;BME280_temperature;BME280_humidity;BME280_pressure;Samples;Min_cycle;Max_cycle;Signal;HPM_P1;HPM_P2
2023/04/25 00:00:00;;;;;;;3.03;1.58;;;;;;;10.28;100.00;92381.09;5130341;27;20385;-70
2023/04/25 00:02:27;;;;;;;3.65;1.70;;;;;;;10.14;100.00;92369.53;5130218;27;20074;-70
2023/04/25 00:04:57;;;;;;;4.13;1.95;;;;;;;10.10;100.00;92368.41;5130075;27;20047;-70
2023/04/25 00:07:26;;;;;;;2.08;1.40;;;;;;;9.95;100.00;92361.97;5130340;27;20071;-70
2023/04/25 00:09:52;;;;;;;3.53;1.77;;;;;;;9.94;100.00;92357.06;5129358;27;20079;-70
2023/04/25 00:12:19;;;;;;;2.55;1.52;;;;;;;9.85;100.00;92346.38;5130124;27;20445;-70
2023/04/25 00:14:49;;;;;;;2.92;1.50;;;;;;;9.87;100.00;92341.81;5130514;27;20036;-70
2023/04/25 00:17:16;;;;;;;2.72;1.80;;;;;;;9.92;100.00;92347.06;5129977;27;20075;-70
2023/04/25 00:19:44;;;;;;;2.33;1.60;;;;;;;9.78;100.00;92331.13;5129386;27;20039;-70
2023/04/25 00:22:11;;;;;;;3.28;2.20;;;;;;;9.97;100.00;92359.97;5129991;27;20047;-69
2023/04/25 00:24:38;;;;;;;3.70;2.47;;;;;;;9.98;100.00;92358.97;5129978;27;20051;-69
2023/04/25 00:27:05;;;;;;;5.30;3.35;;;;;;;10.00;100.00;92367.19;5129832;27;20050;-69
2023/04/25 00:29:31;;;;;;;3.10;2.20;;;;;;;9.96;100.00;92360.97;5129554;27;20078;-69
2023/04/25 00:32:00;;;;;;;3.00;2.40;;;;;;;9.92;100.00;92361.66;5129478;27;20082;-69
2023/04/25 00:34:27;;;;;;;4.20;2.28;;;;;;;9.88;100.00;92354.41;5129644;27;20051;-69
2023/04/25 00:36:53;;;;;;;3.20;2.10;;;;;;;9.84;100.00;92362.78;5129663;27;20047;-69
2023/04/25 00:39:20;;;;;;;4.03;2.30;;;;;;;9.83;100.00;92354.31;5129265;27;20530;-69
2023/04/25 00:41:47;;;;;;;3.33;2.10;;;;;;;9.76;100.00;92362.13;5129510;27;20054;-69
2023/04/25 00:44:13;;;;;;;3.25;1.90;;;;;;;9.69;100.00;92351.22;5129568;27;20043;-69
2023/04/25 00:46:40;;;;;;;2.53;1.48;;;;;;;9.64;100.00;92335.72;5129481;27;20047;-69
2023/04/25 00:49:08;;;;;;;3.97;1.90;;;;;;;9.60;100.00;92317.44;5128908;27;20149;-69
2023/04/25 00:51:36;;;;;;;3.08;1.50;;;;;;;9.60;100.00;92312.31;5129509;27;20498;-69
2023/04/25 00:54:03;;;;;;;1.80;1.10;;;;;;;9.54;100.00;92315.75;5129011;27;20128;-69
2023/04/25 00:56:30;;;;;;;2.33;1.50;;;;;;;9.51;100.00;92305.97;5129154;27;20092;-70
2023/04/25 00:58:57;;;;;;;2.13;1.50;;;;;;;9.53;100.00;92309.06;5129250;27;20427;-69
2023/04/25 01:01:24;;;;;;;2.42;1.83;;;;;;;9.53;100.00;92306.50;5129338;27;20078;-69
2023/04/25 01:03:51;;;;;;;3.10;2.40;;;;;;;9.56;100.00;92310.41;5128532;27;20039;-69
2023/04/25 01:06:19;;;;;;;3.60;3.00;;;;;;;9.56;100.00;92315.53;5128614;27;20514;-69
2023/04/25 01:08:46;;;;;;;4.68;3.53;;;;;;;9.51;100.00;92312.88;5129194;27;20047;-69
2023/04/25 01:11:13;;;;;;;5.28;3.20;;;;;;;9.58;100.00;92314.31;5129018;27;20039;-69
2023/04/25 01:13:40;;;;;;;4.10;3.55;;;;;;;9.59;100.00;92309.97;5128507;27;20132;-69
2023/04/25 01:16:07;;;;;;;4.30;3.50;;;;;;;9.60;100.00;92312.31;5128755;27;20536;-69
2023/04/25 01:18:34;;;;;;;4.75;3.70;;;;;;;9.49;100.00;92293.38;5128553;27;20039;-69
2023/04/25 01:21:09;;;;;;;4.20;3.42;;;;;;;9.53;100.00;92298.06;5128386;27;20039;-69
2023/04/25 01:23:36;;;;;;;6.03;4.07;;;;;;;9.46;100.00;92296.41;5129143;27;20168;-69
2023/04/25 01:26:03;;;;;;;6.38;4.40;;;;;;;9.43;100.00;92291.72;5128694;27;20491;-69
2023/04/25 01:28:31;;;;;;;8.02;4.53;;;;;;;9.45;100.00;92287.13;5128841;27;20051;-69
2023/04/25 01:30:58;;;;;;;6.60;4.93;;;;;;;9.41;100.00;92292.94;5115898;27;20043;-69
2023/04/25 01:33:25;;;;;;;4.90;4.13;;;;;;;9.41;100.00;92287.81;5127433;27;20103;-69
2023/04/25 01:35:51;;;;;;;7.40;4.88;;;;;;;9.42;100.00;92286.81;5128606;27;20593;-69
2023/04/25 01:38:20;;;;;;;6.60;5.25;;;;;;;9.42;100.00;92287.59;5128489;27;20411;-69
2023/04/25 01:40:47;;;;;;;7.47;6.15;;;;;;;9.44;100.00;92293.25;5128259;27;20088;-69
2023/04/25 01:43:14;;;;;;;11.05;7.60;;;;;;;9.44;100.00;92285.56;5128374;27;20039;-70
2023/04/25 01:45:41;;;;;;;9.68;7.25;;;;;;;9.48;100.00;92291.03;5128036;27;20046;-70
2023/04/25 01:48:08;;;;;;;8.65;7.35;;;;;;;9.52;100.00;92291.34;5128361;27;20044;-70
2023/04/25 01:50:34;;;;;;;8.70;6.97;;;;;;;9.54;100.00;92290.13;5128439;27;20042;-70
2023/04/25 01:53:02;;;;;;;8.98;7.57;;;;;;;9.58;100.00;92290.47;5128382;27;20420;-69
2023/04/25 01:55:30;;;;;;;9.10;7.55;;;;;;;9.63;100.00;92301.59;5128406;27;20047;-69
2023/04/25 01:57:57;;;;;;;9.43;7.63;;;;;;;9.70;100.00;92290.44;5127973;27;20039;-70
2023/04/25 02:00:24;;;;;;;10.65;7.20;;;;;;;9.71;100.00;92289.41;5127640;28;20100;-70
2023/04/25 02:02:53;;;;;;;9.10;7.85;;;;;;;9.73;100.00;92284.88;5128449;28;20088;-70
2023/04/25 02:05:20;;;;;;;10.50;8.38;;;;;;;9.75;100.00;92285.41;5127834;28;20047;-69
2023/04/25 02:07:47;;;;;;;10.98;8.40;;;;;;;9.78;100.00;92282.41;5128347;28;20457;-70
2023/04/25 02:10:13;;;;;;;10.75;7.82;;;;;;;9.80;100.00;92282.94;5128314;28;20476;-70
2023/04/25 02:12:41;;;;;;;13.20;8.30;;;;;;;9.82;100.00;92282.72;5128024;28;20092;-69
2023/04/25 02:15:09;;;;;;;13.57;8.88;;;;;;;9.83;100.00;92287.63;5127704;28;20074;-69
2023/04/25 02:17:35;;;;;;;10.68;8.70;;;;;;;9.83;100.00;92282.50;5128252;28;20096;-69
2023/04/25 02:20:02;;;;;;;10.10;8.57;;;;;;;9.85;100.00;92287.38;5127929;28;20507;-69
2023/04/25 02:22:30;;;;;;;10.52;8.00;;;;;;;9.84;100.00;92284.06;5128027;28;20148;-69
2023/04/25 02:24:56;;;;;;;10.88;9.02;;;;;;;9.87;100.00;92281.00;5128000;28;20490;-69
2023/04/25 02:27:23;;;;;;;8.52;7.30;;;;;;;9.88;100.00;92284.38;5128196;28;20040;-70
2023/04/25 02:29:51;;;;;;;12.07;8.48;;;;;;;9.93;100.00;92281.91;5127861;28;20094;-69
2023/04/25 02:32:18;;;;;;;9.48;8.48;;;;;;;9.95;100.00;92285.00;5127818;27;20047;-69
2023/04/25 02:34:45;;;;;;;14.80;9.85;;;;;;;9.97;100.00;92284.78;5131595;27;20047;-69
2023/04/25 02:37:11;;;;;;;16.30;11.15;;;;;;;10.03;100.00;92276.19;5131976;27;20043;-69
2023/04/25 02:39:38;;;;;;;15.05;10.65;;;;;;;10.06;100.00;92277.50;5131931;27;20039;-69
2023/04/25 02:42:05;;;;;;;14.77;9.60;;;;;;;10.02;100.00;92279.75;5132344;27;20437;-69
2023/04/25 02:44:32;;;;;;;10.68;7.85;;;;;;;10.05;100.00;92279.31;5131385;27;20123;-69
2023/04/25 02:47:00;;;;;;;9.85;7.35;;;;;;;10.09;100.00;92277.06;5131541;27;20555;-69
2023/04/25 02:49:26;;;;;;;8.95;7.47;;;;;;;10.04;100.00;92272.59;5131694;27;20127;-69
2023/04/25 02:51:53;;;;;;;11.65;7.35;;;;;;;10.06;100.00;92275.72;5131967;27;20070;-69
2023/04/25 02:54:20;;;;;;;7.57;6.43;;;;;;;10.06;100.00;92267.25;5131114;27;20090;-69
2023/04/25 02:56:46;;;;;;;9.18;6.93;;;;;;;9.97;100.00;92265.06;5131468;27;20568;-70
2023/04/25 02:59:13;;;;;;;8.15;6.88;;;;;;;10.10;100.00;92273.47;5131391;27;20047;-69
2023/04/25 03:01:40;;;;;;;10.05;6.93;;;;;;;10.10;100.00;92263.97;5131112;27;20051;-69
2023/04/25 03:04:08;;;;;;;8.52;6.90;;;;;;;10.11;100.00;92265.56;5131288;27;20507;-69
2023/04/25 03:06:34;;;;;;;9.88;7.05;;;;;;;10.10;100.00;92270.91;5131241;27;20047;-70
2023/04/25 03:09:01;;;;;;;8.98;6.70;;;;;;;10.13;100.00;92271.22;5131063;27;20499;-69
2023/04/25 03:11:28;;;;;;;9.10;6.38;;;;;;;10.10;100.00;92266.53;5131346;27;20043;-69
2023/04/25 03:13:54;;;;;;;9.32;6.20;;;;;;;10.11;100.00;92275.81;5131002;27;20040;-70
2023/04/25 03:16:22;;;;;;;9.02;5.95;;;;;;;10.14;100.00;92269.44;5131228;27;20108;-70
2023/04/25 03:18:50;;;;;;;6.95;6.15;;;;;;;10.08;100.00;92272.91;5130978;27;20043;-70
2023/04/25 03:21:18;;;;;;;7.95;6.03;;;;;;;10.09;100.00;92270.13;5131159;27;20448;-70
2023/04/25 03:23:44;;;;;;;7.82;6.47;;;;;;;10.09;100.00;92261.66;5131150;27;20051;-70
2023/04/25 03:26:11;;;;;;;8.85;6.22;;;;;;;10.14;100.00;92262.50;5130660;27;20096;-70
2023/04/25 03:28:39;;;;;;;9.20;6.15;;;;;;;10.13;100.00;92268.66;5130260;27;20408;-70
2023/04/25 03:31:06;;;;;;;12.95;6.80;;;;;;;10.09;100.00;92265.00;5130747;27;20130;-70
2023/04/25 03:33:33;;;;;;;9.77;6.50;;;;;;;10.11;100.00;92262.19;5130792;27;20043;-70
2023/04/25 03:35:59;;;;;;;9.50;6.22;;;;;;;10.03;100.00;92258.22;5131023;27;20095;-70
2023/04/25 03:38:28;;;;;;;8.93;5.60;;;;;;;10.01;100.00;92247.41;5130811;27;20115;-70
2023/04/25 03:40:55;;;;;;;9.40;5.45;;;;;;;9.93;100.00;92230.59;5130853;27;20078;-70
2023/04/25 03:43:22;;;;;;;9.85;5.72;;;;;;;9.89;100.00;92243.09;5130725;27;20402;-70
2023/04/25 03:45:49;;;;;;;8.25;5.20;;;;;;;9.86;100.00;92245.34;5129303;27;20100;-70
2023/04/25 03:48:16;;;;;;;11.93;5.72;;;;;;;9.87;100.00;92252.81;5130379;27;20051;-70
2023/04/25 03:50:42;;;;;;;8.98;5.22;;;;;;;9.86;100.00;92250.50;5130610;27;20516;-70
2023/04/25 03:53:09;;;;;;;8.85;5.78;;;;;;;9.88;100.00;92254.38;5130620;27;20082;-70
2023/04/25 03:55:37;;;;;;;9.98;6.03;;;;;;;9.91;100.00;92255.72;5130488;27;20079;-70
2023/04/25 03:58:04;;;;;;;7.70;5.90;;;;;;;9.92;100.00;92257.25;5130100;27;20517;-69
2023/04/25 04:00:31;;;;;;;10.60;5.88;;;;;;;9.92;100.00;92256.47;5130852;27;20047;-70
2023/04/25 04:02:58;;;;;;;9.73;6.05;;;;;;;9.98;100.00;92265.81;5129993;27;20097;-70
2023/04/25 04:05:24;;;;;;;11.05;5.60;;;;;;;9.96;100.00;92263.47;5129972;27;20488;-69
2023/04/25 04:07:51;;;;;;;8.00;5.38;;;;;;;9.99;100.00;92264.81;5129853;27;20499;-69
2023/04/25 04:10:18;;;;;;;10.05;6.05;;;;;;;10.04;100.00;92264.91;5130255;27;20157;-69
2023/04/25 04:12:46;;;;;;;13.25;6.93;;;;;;;10.09;100.00;92266.78;5129809;27;20039;-70
2023/04/25 04:15:22;;;;;;;8.77;5.47;;;;;;;10.00;100.00;92251.00;5130009;27;20052;-70
2023/04/25 04:17:49;;;;;;;9.05;6.43;;;;;;;10.04;100.00;92262.34;5130089;27;20065;-70
2023/04/25 04:20:16;;;;;;;11.02;6.63;;;;;;;10.11;100.00;92272.47;5129953;27;20571;-70
2023/04/25 04:22:43;;;;;;;11.20;6.80;;;;;;;10.14;100.00;92274.59;5129809;27;20039;-70
2023/04/25 04:25:11;;;;;;;9.68;6.78;;;;;;;10.11;100.00;92267.34;5129326;27;20410;-70
2023/04/25 04:27:38;;;;;;;9.63;5.90;;;;;;;10.16;100.00;92268.22;5124055;27;20171;-70
2023/04/25 04:30:08;;;;;;;9.38;6.50;;;;;;;10.17;100.00;92266.41;5112484;27;20133;-69
2023/04/25 04:32:37;;;;;;;9.45;5.55;;;;;;;10.13;100.00;92271.22;5129889;27;20043;-70
2023/04/25 04:35:06;;;;;;;9.20;5.32;;;;;;;9.88;100.00;92233.84;5127047;27;20043;-70
2023/04/25 04:37:33;;;;;;;8.77;5.80;;;;;;;10.07;100.00;92261.09;5129538;27;20055;-69
2023/04/25 04:40:01;;;;;;;9.40;6.32;;;;;;;10.09;100.00;92254.72;5129009;27;20039;-70
2023/04/25 04:42:27;;;;;;;10.68;5.72;;;;;;;10.02;100.00;92254.09;5129225;27;20392;-70
2023/04/25 04:44:54;;;;;;;8.80;5.22;;;;;;;10.00;100.00;92253.56;5129670;27;20040;-69
2023/04/25 04:47:23;;;;;;;9.27;5.90;;;;;;;9.97;100.00;92251.44;5129235;27;20132;-69
2023/04/25 04:49:50;;;;;;;9.95;5.60;;;;;;;9.91;100.00;92247.22;5129489;27;20055;-69
2023/04/25 04:52:16;;;;;;;10.63;6.47;;;;;;;9.98;100.00;92253.78;5129297;27;20135;-70
2023/04/25 04:54:43;;;;;;;11.00;6.95;;;;;;;10.01;100.00;92258.44;5128900;27;20103;-70
2023/04/25 04:57:10;;;;;;;11.25;6.38;;;;;;;9.98;100.00;92261.47;5128611;27;20134;-69
2023/04/25 04:59:36;;;;;;;10.63;5.97;;;;;;;10.00;100.00;92272.28;5129206;27;20051;-70
2023/04/25 05:02:03;;;;;;;9.95;5.93;;;;;;;10.05;100.00;92270.81;5128969;27;20047;-70
2023/04/25 05:04:31;;;;;;;10.32;6.13;;;;;;;10.13;100.00;92273.00;5129162;27;20119;-69
2023/04/25 05:06:58;;;;;;;8.88;5.72;;;;;;;10.18;100.00;92269.78;5128508;27;20107;-69
2023/04/25 05:09:25;;;;;;;10.60;5.95;;;;;;;10.23;100.00;92270.63;5128450;27;20445;-70
2023/04/25 05:11:52;;;;;;;11.85;5.85;;;;;;;10.22;100.00;92258.00;5128966;27;21342;-70
2023/04/25 05:14:19;;;;;;;8.10;6.25;;;;;;;10.40;100.00;92278.38;5128804;27;20043;-70
2023/04/25 05:16:45;;;;;;;8.48;6.07;;;;;;;10.48;100.00;92284.94;5128572;27;20107;-69
2023/04/25 05:19:12;;;;;;;9.82;6.40;;;;;;;10.48;100.00;92289.28;5128915;27;20047;-69
2023/04/25 05:21:40;;;;;;;11.43;6.88;;;;;;;10.54;100.00;92275.50;5128517;27;20123;-69
2023/04/25 05:24:07;;;;;;;10.57;6.40;;;;;;;10.64;100.00;92280.06;5128596;27;20043;-70
2023/04/25 05:26:33;;;;;;;10.32;7.22;;;;;;;10.71;100.00;92278.09;5128606;27;20095;-70
2023/04/25 05:29:00;;;;;;;12.80;6.68;;;;;;;10.78;100.00;92271.03;5128375;27;20043;-70
2023/04/25 05:31:27;;;;;;;10.32;6.40;;;;;;;10.80;100.00;92276.69;5128402;27;20047;-70
2023/04/25 05:33:54;;;;;;;16.50;6.93;;;;;;;10.89;100.00;92273.75;5128802;27;20074;-70
2023/04/25 05:36:21;;;;;;;9.65;6.28;;;;;;;10.96;100.00;92274.34;5128780;27;20104;-70
2023/04/25 05:38:49;;;;;;;10.68;6.10;;;;;;;11.03;100.00;92280.13;5128139;27;20050;-70
2023/04/25 05:41:15;;;;;;;12.93;5.78;;;;;;;11.04;100.00;92278.31;5127993;27;20051;-70
2023/04/25 05:43:46;;;;;;;10.00;5.80;;;;;;;11.07;100.00;92281.19;5128169;27;20043;-69
2023/04/25 05:46:13;;;;;;;7.88;6.05;;;;;;;11.06;100.00;92269.38;5128610;27;20464;-69
2023/04/25 05:48:40;;;;;;;8.52;6.07;;;;;;;11.18;100.00;92278.78;5127908;27;20092;-70
2023/04/25 05:51:07;;;;;;;13.35;6.18;;;;;;;11.20;100.00;92290.38;5128160;27;21462;-70
2023/04/25 05:53:33;;;;;;;7.75;5.72;;;;;;;11.26;100.00;92278.38;5128035;27;20091;-70
2023/04/25 05:56:01;;;;;;;9.27;6.00;;;;;;;11.29;100.00;92283.03;5127876;27;20495;-70
2023/04/25 05:58:28;;;;;;;9.45;6.13;;;;;;;11.34;100.00;92266.94;5128281;27;20043;-70
2023/04/25 06:00:55;;;;;;;9.07;6.10;;;;;;;11.41;100.00;92277.00;5128284;28;20050;-70
2023/04/25 06:03:22;;;;;;;11.05;6.32;;;;;;;11.45;100.00;92278.09;5127653;28;20047;-70
2023/04/25 06:05:49;;;;;;;10.63;7.38;;;;;;;11.35;100.00;92263.34;5127721;28;20039;-70
2023/04/25 06:08:16;;;;;;;7.70;5.07;;;;;;;11.42;100.00;92274.22;5128985;27;20039;-70
2023/04/25 06:10:42;;;;;;;8.98;5.45;;;;;;;11.39;100.00;92266.19;5132032;27;20051;-70
2023/04/25 06:13:10;;;;;;;8.18;5.47;;;;;;;11.69;100.00;92280.44;5132579;27;20035;-69
2023/04/25 06:15:37;;;;;;;7.63;5.18;;;;;;;12.08;100.00;92279.63;5132386;27;20583;-69
2023/04/25 06:18:04;;;;;;;9.00;4.50;;;;;;;12.45;100.00;92273.03;5132266;27;20078;-70
2023/04/25 06:20:30;;;;;;;6.68;4.85;;;;;;;12.80;100.00;92282.88;5132260;27;20047;-70
2023/04/25 06:22:57;;;;;;;8.70;4.75;;;;;;;13.26;100.00;92286.00;5131637;27;20096;-70
2023/04/25 06:25:24;;;;;;;6.82;4.70;;;;;;;13.58;100.00;92303.22;5132006;27;21339;-70
2023/04/25 06:27:50;;;;;;;8.82;4.93;;;;;;;13.58;100.00;92292.91;5132485;27;20078;-70
2023/04/25 06:30:22;;;;;;;7.03;3.90;;;;;;;13.32;100.00;92274.69;5131287;27;20092;-70
2023/04/25 06:32:48;;;;;;;6.05;3.90;;;;;;;13.47;100.00;92302.41;5132274;27;20069;-70
2023/04/25 06:35:15;;;;;;;7.03;4.65;;;;;;;13.19;100.00;92306.84;5132247;27;20048;-70
2023/04/25 06:37:42;;;;;;;6.57;4.07;;;;;;;13.25;100.00;92308.44;5132072;27;20047;-70
2023/04/25 06:40:10;;;;;;;7.18;4.38;;;;;;;13.06;100.00;92306.22;5131819;27;20509;-70
2023/04/25 06:42:37;;;;;;;5.53;3.60;;;;;;;12.89;100.00;92306.38;5131809;27;20479;-70
2023/04/25 06:45:04;;;;;;;9.80;4.53;;;;;;;12.88;100.00;92311.78;5132148;27;20051;-70
2023/04/25 06:47:32;;;;;;;6.68;4.40;;;;;;;12.82;100.00;92308.38;5131837;27;20403;-70
2023/04/25 06:49:58;;;;;;;8.15;4.68;;;;;;;12.86;100.00;92312.00;5131490;27;20082;-70
2023/04/25 06:52:25;;;;;;;8.18;4.90;;;;;;;12.86;100.00;92316.41;5131377;27;20407;-70
2023/04/25 06:54:52;;;;;;;7.28;5.25;;;;;;;12.86;100.00;92306.84;5131824;27;20123;-70
2023/04/25 06:57:18;;;;;;;6.88;4.15;;;;;;;12.90;100.00;92314.88;5131243;27;20043;-70
2023/04/25 06:59:45;;;;;;;9.48;5.00;;;;;;;12.94;100.00;92315.94;5131581;27;20341;-70
2023/04/25 07:02:12;;;;;;;7.60;5.47;;;;;;;12.92;100.00;92300.72;5131477;27;20112;-70
2023/04/25 07:04:40;;;;;;;8.23;6.15;;;;;;;13.12;100.00;92316.59;5131063;27;20055;-70
2023/04/25 07:07:07;;;;;;;11.63;5.90;;;;;;;13.21;100.00;92320.28;5131096;27;20068;-70
2023/04/25 07:09:33;;;;;;;7.50;5.00;;;;;;;13.27;100.00;92313.31;5131163;27;20087;-70
2023/04/25 07:12:01;;;;;;;7.75;4.93;;;;;;;13.29;100.00;92299.16;5116766;27;20102;-70
2023/04/25 07:14:28;;;;;;;6.43;5.13;;;;;;;13.41;100.00;92316.25;5124729;27;20052;-70
2023/04/25 07:16:55;;;;;;;6.43;4.88;;;;;;;13.54;100.00;92307.34;5117171;27;20075;-70
2023/04/25 07:19:23;;;;;;;8.60;5.68;;;;;;;13.65;100.00;92310.75;5125654;27;20050;-70
2023/04/25 07:21:51;;;;;;;9.02;5.20;;;;;;;13.73;100.00;92300.72;5128560;27;20043;-70
2023/04/25 07:24:18;;;;;;;10.95;5.95;;;;;;;13.73;100.00;92294.78;5130705;27;20047;-70
2023/04/25 07:26:45;;;;;;;10.00;5.00;;;;;;;13.78;100.00;92301.78;5130496;27;20384;-70
2023/04/25 07:29:12;;;;;;;9.55;5.00;;;;;;;13.78;100.00;92297.38;5130904;27;20043;-70
2023/04/25 07:31:39;;;;;;;10.85;4.85;;;;;;;13.92;100.00;92302.09;5130456;27;20111;-70
2023/04/25 07:34:05;;;;;;;11.52;5.18;;;;;;;14.05;100.00;92300.84;5130559;27;20051;-70
2023/04/25 07:36:32;;;;;;;8.18;4.35;;;;;;;14.27;100.00;92303.25;5130486;27;20043;-70
2023/04/25 07:39:00;;;;;;;7.45;3.75;;;;;;;14.42;100.00;92298.13;5130629;27;20047;-70
2023/04/25 07:41:27;;;;;;;7.80;3.88;;;;;;;14.44;100.00;92297.84;5130218;27;20107;-70
2023/04/25 07:43:53;;;;;;;4.75;2.75;;;;;;;14.48;100.00;92291.13;5130698;27;20111;-70
2023/04/25 07:46:20;;;;;;;5.07;2.60;;;;;;;14.72;100.00;92289.88;5130619;27;20075;-70
2023/04/25 07:48:47;;;;;;;5.20;2.58;;;;;;;14.85;100.00;92281.63;5130382;27;20051;-70
2023/04/25 07:51:13;;;;;;;3.85;2.58;;;;;;;14.99;100.00;92286.28;5130260;27;20535;-70
2023/04/25 07:53:40;;;;;;;3.55;2.42;;;;;;;15.35;100.00;92279.25;5130320;27;20111;-71
2023/04/25 07:56:09;;;;;;;3.97;2.53;;;;;;;15.56;100.00;92276.59;5130114;27;20422;-70
2023/04/25 07:58:35;;;;;;;5.22;2.83;;;;;;;15.88;100.00;92285.06;5128383;27;20122;-70
2023/04/25 08:01:02;;;;;;;4.10;2.15;;;;;;;16.14;100.00;92272.00;5129749;27;20051;-70
2023/04/25 08:03:29;;;;;;;4.65;2.50;;;;;;;16.42;100.00;92273.16;5129785;27;20039;-70
2023/04/25 08:05:56;;;;;;;3.15;2.13;;;;;;;16.57;100.00;92279.28;5130029;27;20632;-71
2023/04/25 08:08:22;;;;;;;3.10;2.10;;;;;;;16.54;100.00;92278.00;5130131;27;20047;-70
2023/04/25 08:10:49;;;;;;;4.57;2.25;;;;;;;16.60;100.00;92286.53;5129927;27;20100;-70
2023/04/25 08:13:17;;;;;;;4.03;2.00;;;;;;;16.61;100.00;92284.72;5130022;27;20963;-71
2023/04/25 08:15:44;;;;;;;7.28;2.05;;;;;;;16.64;100.00;92278.97;5129220;27;20043;-70
2023/04/25 08:18:11;;;;;;;4.57;2.10;;;;;;;16.50;100.00;92269.22;5130168;27;20073;-71
2023/04/25 08:20:38;;;;;;;4.78;1.98;;;;;;;16.47;100.00;92280.13;5129072;27;20050;-70
2023/04/25 08:23:04;;;;;;;2.92;1.50;;;;;;;16.45;99.98;92273.66;5127162;27;20058;-70
2023/04/25 08:25:31;;;;;;;4.82;2.38;;;;;;;16.28;100.00;92274.78;5127167;27;20043;-71
2023/04/25 08:27:59;;;;;;;3.72;1.92;;;;;;;16.26;100.00;92272.47;5129323;27;20055;-70
2023/04/25 08:30:27;;;;;;;3.60;1.90;;;;;;;16.35;100.00;92264.94;5128755;27;20088;-70
2023/04/25 08:32:54;;;;;;;3.75;1.55;;;;;;;16.51;100.00;92260.41;5128739;27;20100;-70
2023/04/25 08:38:06;;;;;;;3.38;1.70;;;;;;;16.87;100.00;92256.78;5129128;27;20404;-71
2023/04/25 08:40:38;;;;;;;3.13;1.50;;;;;;;17.12;100.00;92260.22;5130042;27;20050;-70
2023/04/25 08:43:11;;;;;;;3.90;1.70;;;;;;;17.28;98.04;92257.50;5129115;27;20047;-71
2023/04/25 08:45:40;;;;;;;4.75;1.77;;;;;;;17.48;94.66;92264.28;5114608;27;20054;-71
2023/04/25 08:48:11;;;;;;;3.35;0.93;;;;;;;17.07;74.53;92255.06;5111475;27;20135;-71
2023/04/25 08:50:40;;;;;;;3.47;1.27;;;;;;;17.06;83.61;92251.72;5129073;27;20067;-71
2023/04/25 08:53:12;;;;;;;1.98;0.90;;;;;;;17.40;81.26;92257.88;5128120;27;20051;-71
2023/04/25 08:55:42;;;;;;;3.00;1.20;;;;;;;17.59;83.39;92220.84;5128534;27;20112;-71
2023/04/25 08:58:11;;;;;;;3.47;1.13;;;;;;;18.01;80.59;92249.69;5128949;27;20054;-71
2023/04/25 09:00:40;;;;;;;2.53;1.10;;;;;;;18.07;77.73;92240.81;5128769;27;20039;-71
2023/04/25 09:03:08;;;;;;;3.03;1.30;;;;;;;18.18;77.05;92245.88;5128984;27;20121;-71
2023/04/25 09:05:35;;;;;;;5.30;1.83;;;;;;;18.29;78.17;92253.22;5128102;27;20051;-71
2023/04/25 09:08:02;;;;;;;3.72;1.13;;;;;;;18.38;76.92;92250.75;5128193;27;20046;-71
2023/04/25 09:10:29;;;;;;;3.63;1.52;;;;;;;18.31;79.01;92219.16;5128194;27;20047;-71
2023/04/25 09:13:08;;;;;;;2.25;0.95;;;;;;;17.98;68.23;92247.63;5128626;27;20123;-71
2023/04/25 09:15:49;;;;;;;2.65;1.30;;;;;;;17.85;68.52;92231.69;5128606;27;20079;-71
2023/04/25 09:18:24;;;;;;;2.75;0.80;;;;;;;17.88;72.92;92232.94;5128136;27;20447;-71
2023/04/25 09:20:52;;;;;;;4.95;1.05;;;;;;;17.68;77.96;92232.13;5128836;27;20100;-71
2023/04/25 09:23:21;;;;;;;2.15;0.70;;;;;;;17.70;73.92;92227.44;5126999;27;20564;-71
2023/04/25 09:25:49;;;;;;;4.40;1.98;;;;;;;17.47;74.82;92229.78;5117652;27;20039;-71
2023/04/25 09:28:16;;;;;;;3.80;1.25;;;;;;;17.34;72.31;92233.03;5100864;27;20093;-71
2023/04/25 09:30:43;;;;;;;3.00;1.60;;;;;;;17.36;71.23;92244.69;5118583;27;20039;-71
2023/04/25 09:33:12;;;;;;;3.33;0.93;;;;;;;16.59;67.33;92243.50;5128177;27;20047;-71
2023/04/25 09:35:40;;;;;;;4.13;1.10;;;;;;;16.70;72.73;92239.78;5128266;27;20479;-71
2023/04/25 09:38:12;;;;;;;5.05;1.40;;;;;;;16.68;68.40;92252.22;5114604;27;20055;-71
2023/04/25 09:40:42;;;;;;;2.85;0.90;;;;;;;16.76;71.24;92255.31;5127572;27;20050;-71
2023/04/25 09:43:20;;;;;;;4.82;0.80;;;;;;;16.57;68.23;92255.94;5127734;27;20055;-71
2023/04/25 09:45:47;;;;;;;2.45;1.00;;;;;;;16.37;71.85;92269.81;5128258;27;20142;-72
2023/04/25 09:48:21;;;;;;;3.80;0.73;;;;;;;16.20;77.31;92276.13;5120352;27;20050;-71
2023/04/25 09:51:09;;;;;;;6.88;2.13;;;;;;;15.90;83.98;92270.81;5128166;27;20044;-71
2023/04/25 09:53:39;;;;;;;8.98;2.00;;;;;;;15.96;84.87;92263.81;5127184;27;20047;-71
2023/04/25 09:56:10;;;;;;;3.05;0.70;;;;;;;15.82;77.53;92258.41;5128922;27;20138;-71
2023/04/25 09:58:38;;;;;;;2.05;0.73;;;;;;;15.81;73.03;92259.44;5129535;27;20773;-72
2023/04/25 10:01:08;;;;;;;3.92;0.85;;;;;;;15.77;72.69;92261.81;5128950;27;20047;-72
2023/04/25 10:03:41;;;;;;;3.13;0.88;;;;;;;15.39;74.98;92258.03;5129519;28;20047;-71
2023/04/25 10:06:12;;;;;;;6.05;1.35;;;;;;;15.28;80.41;92252.09;5128879;28;20066;-71
2023/04/25 10:08:40;;;;;;;1.55;0.93;;;;;;;15.28;84.43;92239.19;5127613;28;20175;-71
2023/04/25 10:11:08;;;;;;;1.63;0.88;;;;;;;15.31;79.96;92248.97;5127980;28;20047;-71
2023/04/25 10:13:36;;;;;;;2.85;0.88;;;;;;;15.36;78.72;92241.22;5127767;28;20092;-71
2023/04/25 10:16:05;;;;;;;1.05;0.43;;;;;;;15.36;76.18;92246.38;5126009;28;20043;-71
2023/04/25 10:18:33;;;;;;;5.22;1.00;;;;;;;15.56;81.58;92245.53;5105898;28;20039;-71
2023/04/25 10:21:04;;;;;;;3.97;1.50;;;;;;;15.61;74.56;92242.94;5128041;28;20882;-71
2023/04/25 10:23:31;;;;;;;2.72;1.23;;;;;;;15.24;71.84;92226.00;5127414;28;20035;-71
2023/04/25 10:25:59;;;;;;;5.25;1.50;;;;;;;15.44;75.31;92240.69;5118452;28;20521;-71
2023/04/25 10:28:29;;;;;;;12.38;2.45;;;;;;;15.59;78.45;92245.03;5128231;28;20043;-71
2023/04/25 10:31:02;;;;;;;9.90;2.35;;;;;;;15.52;80.30;92212.69;5120041;28;20051;-71
2023/04/25 10:33:36;;;;;;;5.07;1.95;;;;;;;15.70;82.70;92245.00;5107394;28;20052;-71
2023/04/25 10:36:12;;;;;;;10.02;4.00;;;;;;;15.70;83.90;92239.81;5102708;28;20043;-71
2023/04/25 10:38:40;;;;;;;5.88;2.65;;;;;;;15.57;87.00;92236.75;5127190;28;20054;-71
2023/04/25 10:41:09;;;;;;;5.07;2.00;;;;;;;15.46;91.86;92233.41;5127402;28;20043;-71
2023/04/25 10:43:38;;;;;;;2.55;1.10;;;;;;;15.46;96.69;92219.72;5128321;28;20411;-71
2023/04/25 10:46:17;;;;;;;4.38;1.52;;;;;;;15.27;95.47;92206.59;5127795;28;20388;-71
2023/04/25 10:48:49;;;;;;;2.42;0.93;;;;;;;15.41;93.75;92223.09;5125204;28;20096;-71
2023/04/25 10:51:23;;;;;;;2.83;1.40;;;;;;;15.19;93.64;92189.78;5125924;28;20047;-71
2023/04/25 10:54:01;;;;;;;5.00;1.45;;;;;;;15.49;88.95;92209.63;5100066;27;20408;-70
2023/04/25 10:56:29;;;;;;;4.80;1.27;;;;;;;15.59;88.35;92189.88;5129223;27;20407;-70
2023/04/25 10:59:08;;;;;;;2.92;0.80;;;;;;;15.77;85.82;92204.84;5118035;27;20039;-70
2023/04/25 11:01:40;;;;;;;1.25;0.45;;;;;;;15.86;84.42;92205.06;5131660;27;20043;-70
2023/04/25 11:04:07;;;;;;;2.28;0.60;;;;;;;16.10;86.20;92201.06;5130936;27;20043;-70
2023/04/25 11:06:48;;;;;;;1.38;0.60;;;;;;;16.12;80.49;92162.72;5130373;27;20055;-70
2023/04/25 11:09:14;;;;;;;4.03;1.05;;;;;;;16.58;84.45;92173.78;5120499;27;20477;-71
2023/04/25 11:11:41;;;;;;;1.20;0.50;;;;;;;17.00;79.05;92169.00;5130310;27;20069;-70
2023/04/25 11:14:08;;;;;;;1.10;0.50;;;;;;;17.06;81.12;92154.94;5130637;27;20124;-70
2023/04/25 11:16:36;;;;;;;2.67;0.70;;;;;;;17.18;80.54;92177.91;5131268;27;20082;-70
2023/04/25 11:19:03;;;;;;;2.47;0.80;;;;;;;17.20;76.71;92193.97;5130889;27;20449;-70
2023/04/25 11:21:31;;;;;;;0.95;0.30;;;;;;;17.04;72.79;92207.09;5130076;27;20079;-70
2023/04/25 11:24:00;;;;;;;0.98;0.30;;;;;;;16.91;75.20;92234.44;5129840;27;20607;-71
2023/04/25 11:26:27;;;;;;;2.85;0.70;;;;;;;15.95;79.03;92261.47;5130470;27;20039;-71
2023/04/25 11:28:58;;;;;;;9.70;2.63;;;;;;;14.30;96.35;92274.31;5130567;27;20035;-70
2023/04/25 11:31:26;;;;;;;10.07;2.13;;;;;;;14.02;100.00;92281.47;5130310;27;20515;-69